Time;durP1;ratioP1;P1;durP2;ratioP2;P2;SDS_P1;SDS_P2;PMS_P1;PMS_P2;Temp;Humidity;BMP_temperature;BMP_pressure;BME280_temperature;BME280_humidity;BME280_pressure;Samples;Min_cycle;Max_cycle;Signal;HPM_P1;HPM_P2
2022/01/25 00:09:20;;;;;;;9.93;4.13;;;;;;;2.52;98.22;97739.91;5056655;28;20259;-67
2022/01/25 00:25:46;;;;;;;31.60;7.07;;;;;;;2.54;98.91;97735.44;5059558;28;20234;-68
2022/01/25 00:28:21;;;;;;;12.33;4.33;;;;;;;2.55;98.99;97739.72;5058422;28;20405;-67
2022/01/25 00:31:01;;;;;;;12.83;4.60;;;;;;;2.58;99.68;97743.91;5058512;28;20234;-68
2022/01/25 00:33:31;;;;;;;9.43;3.27;;;;;;;2.81;98.84;97736.34;5058528;28;20269;-68
2022/01/25 00:35:58;;;;;;;12.97;4.13;;;;;;;2.57;99.48;97748.28;5058355;28;21241;-68
2022/01/25 00:38:25;;;;;;;13.30;4.90;;;;;;;2.35;99.94;97749.63;5057998;28;20235;-68
2022/01/25 00:40:51;;;;;;;22.67;7.90;;;;;;;2.29;99.78;97750.00;5057902;28;20212;-67
2022/01/25 00:43:19;;;;;;;13.93;4.67;;;;;;;2.40;99.95;97745.81;5057939;28;20223;-68
2022/01/25 00:45:45;;;;;;;8.13;3.97;;;;;;;2.19;99.89;97750.63;5058384;28;20617;-68
2022/01/25 00:48:18;;;;;;;12.37;3.93;;;;;;;2.28;100.00;97755.28;5058361;28;20251;-68
2022/01/25 00:50:47;;;;;;;39.77;6.33;;;;;;;2.59;100.00;97749.00;5058053;28;20623;-67
2022/01/25 00:55:57;;;;;;;15.33;3.30;;;;;;;2.23;100.00;97754.72;5058063;28;20691;-67
2022/01/25 00:58:24;;;;;;;7.93;3.33;;;;;;;2.27;100.00;97751.03;5057944;28;20235;-67
2022/01/25 01:00:50;;;;;;;16.77;5.90;;;;;;;2.27;100.00;97748.44;5058006;28;20262;-67
2022/01/25 01:03:17;;;;;;;19.43;4.83;;;;;;;2.47;100.00;97744.53;5057083;28;20712;-69
2022/01/25 01:05:44;;;;;;;12.60;6.27;;;;;;;2.56;99.98;97749.19;5058669;28;20204;-67
2022/01/25 01:08:12;;;;;;;9.60;4.60;;;;;;;2.56;99.84;97749.19;5057129;28;20229;-70
2022/01/25 01:10:39;;;;;;;6.80;4.17;;;;;;;2.08;100.00;97750.44;5056278;28;20890;-68
2022/01/25 01:13:40;;;;;;;7.60;6.07;;;;;;;2.08;100.00;97750.44;5057635;28;20198;-68
2022/01/25 01:16:29;;;;;;;10.03;3.67;;;;;;;2.15;100.00;97746.53;5057686;28;20215;-68
2022/01/25 01:30:06;;;;;;;16.40;4.50;;;;;;;2.72;98.84;97731.72;5057637;28;20262;-68
2022/01/25 01:33:03;;;;;;;29.03;6.37;;;;;;;2.65;98.34;97733.03;5056596;28;20203;-68
2022/01/25 01:35:44;;;;;;;11.23;4.90;;;;;;;2.68;98.79;97735.44;5058258;28;20220;-70
2022/01/25 01:38:40;;;;;;;15.07;5.30;;;;;;;2.60;99.41;97744.66;5056221;28;20335;-70
2022/01/25 01:41:25;;;;;;;25.33;6.73;;;;;;;2.80;99.52;97746.88;5057378;28;20208;-68
2022/01/25 01:43:54;;;;;;;16.10;6.03;;;;;;;2.80;98.54;97747.72;5057184;28;20265;-70
2022/01/25 01:46:31;;;;;;;14.50;4.63;;;;;;;2.87;98.49;97743.78;5057839;28;20679;-69
2022/01/25 01:49:00;;;;;;;19.13;6.23;;;;;;;2.82;98.11;97740.63;5057155;28;20216;-69
2022/01/25 01:51:31;;;;;;;16.77;6.83;;;;;;;2.92;98.32;97741.75;5057462;28;20205;-69
2022/01/25 01:53:59;;;;;;;23.30;6.23;;;;;;;2.70;98.34;97741.41;5056551;28;20204;-67
2022/01/25 01:56:28;;;;;;;15.53;6.47;;;;;;;2.81;98.10;97741.56;5057211;28;20196;-68
2022/01/25 01:58:57;;;;;;;10.67;3.40;;;;;;;2.84;98.07;97738.78;5057268;28;20206;-67
2022/01/25 02:01:26;;;;;;;9.30;4.87;;;;;;;2.36;99.59;97751.31;5057034;28;20206;-68
2022/01/25 02:03:54;;;;;;;10.27;4.27;;;;;;;2.32;99.72;97755.03;5055822;28;20217;-68
2022/01/25 02:06:21;;;;;;;11.03;4.90;;;;;;;2.34;99.71;97747.13;5057366;28;20206;-70
2022/01/25 02:08:47;;;;;;;10.07;4.80;;;;;;;2.17;99.85;97748.13;5054690;28;20228;-69
2022/01/25 02:11:14;;;;;;;24.93;6.47;;;;;;;2.08;100.00;97751.25;5057051;28;20673;-68
2022/01/25 02:13:42;;;;;;;8.73;4.67;;;;;;;2.41;100.00;97742.31;5056581;28;20209;-67
2022/01/25 02:16:18;;;;;;;12.80;3.50;;;;;;;2.13;100.00;97745.81;5057128;28;20234;-67
2022/01/25 02:24:14;;;;;;;12.27;3.73;;;;;;;2.39;99.92;97734.69;5056036;28;20219;-68
2022/01/25 02:26:40;;;;;;;21.43;5.80;;;;;;;2.41;99.88;97737.09;5056812;28;20200;-69
2022/01/25 02:29:07;;;;;;;11.60;4.27;;;;;;;2.56;99.58;97744.00;5056421;28;20207;-67
2022/01/25 02:31:33;;;;;;;24.90;6.43;;;;;;;2.52;99.28;97741.66;5056825;28;20230;-68
2022/01/25 02:34:00;;;;;;;8.07;4.17;;;;;;;2.62;98.77;97738.44;5056375;28;20208;-69
2022/01/25 02:36:28;;;;;;;19.93;5.87;;;;;;;2.55;99.50;97742.31;5056949;28;20215;-69
2022/01/25 02:38:57;;;;;;;12.30;5.07;;;;;;;2.45;99.88;97738.59;5057009;28;20667;-69
2022/01/25 02:41:24;;;;;;;15.00;5.87;;;;;;;2.45;99.93;97735.97;5056413;28;20207;-69
2022/01/25 02:43:51;;;;;;;11.73;5.77;;;;;;;2.52;99.34;97726.03;5055710;28;20692;-68
2022/01/25 02:48:29;;;;;;;17.03;5.67;;;;;;;2.43;99.56;97730.06;5058136;28;20205;-68
2022/01/25 02:49:08;;;;;;;13.93;4.97;;;;;;;2.23;99.44;97723.50;5056837;28;20642;-69
2022/01/25 02:51:37;;;;;;;9.57;3.60;;;;;;;2.37;99.50;97726.13;5060403;28;20207;-67
2022/01/25 02:54:07;;;;;;;19.23;3.87;;;;;;;2.58;99.30;97731.75;5060034;28;20204;-68
2022/01/25 02:56:34;;;;;;;12.93;4.43;;;;;;;2.52;98.60;97726.03;5061056;28;20206;-67
2022/01/25 02:59:01;;;;;;;17.20;6.33;;;;;;;2.40;98.86;97723.38;5060382;28;20235;-69
2022/01/25 03:01:28;;;;;;;8.80;4.07;;;;;;;2.37;99.29;97726.13;5060405;28;20211;-68
2022/01/25 03:03:55;;;;;;;21.03;6.33;;;;;;;2.45;99.00;97730.78;5059792;28;20905;-68
2022/01/25 03:06:23;;;;;;;9.43;4.47;;;;;;;2.47;99.59;97722.91;5060341;28;21181;-67
2022/01/25 03:08:51;;;;;;;16.20;4.93;;;;;;;2.34;100.00;97715.91;5057452;28;21369;-68
2022/01/25 03:11:21;;;;;;;14.00;5.80;;;;;;;2.40;100.00;97720.75;5060528;28;20215;-68
2022/01/25 03:13:51;;;;;;;13.00;4.33;;;;;;;2.14;100.00;97724.91;5059583;28;20196;-69
2022/01/25 03:16:27;;;;;;;22.10;5.10;;;;;;;2.19;100.00;97727.22;5060732;28;21152;-69
2022/01/25 03:18:56;;;;;;;13.30;4.43;;;;;;;1.99;100.00;97730.16;5060095;28;20576;-68
2022/01/25 03:21:35;;;;;;;10.73;3.80;;;;;;;2.07;100.00;97728.78;5060263;28;20204;-68
2022/01/25 03:24:04;;;;;;;12.20;4.53;;;;;;;2.36;99.04;97719.28;5059803;28;20232;-68
2022/01/25 03:26:33;;;;;;;12.43;4.03;;;;;;;2.54;99.46;97724.19;5060442;28;20209;-68
2022/01/25 03:29:00;;;;;;;7.80;3.63;;;;;;;2.41;98.78;97723.25;5060243;28;20613;-69
2022/01/25 03:31:26;;;;;;;4.73;3.43;;;;;;;2.08;99.39;97722.66;5059869;28;20210;-69
2022/01/25 03:33:53;;;;;;;9.80;4.60;;;;;;;2.33;98.68;97717.69;5059389;28;20630;-69
2022/01/25 03:36:19;;;;;;;11.53;5.63;;;;;;;2.31;98.20;97719.53;5059984;28;20983;-67
2022/01/25 03:38:47;;;;;;;17.60;5.90;;;;;;;2.30;99.02;97710.06;5059570;28;20735;-69
2022/01/25 03:41:15;;;;;;;12.10;4.77;;;;;;;1.99;100.00;97711.97;5059962;28;20682;-68
2022/01/25 03:43:44;;;;;;;10.87;4.83;;;;;;;2.28;99.78;97713.66;5058949;28;20228;-70
2022/01/25 03:46:16;;;;;;;9.47;4.47;;;;;;;1.87;100.00;97716.13;5059792;28;20659;-67
2022/01/25 03:51:27;;;;;;;23.83;5.00;;;;;;;1.87;100.00;97710.91;5058330;28;20212;-68
2022/01/25 03:53:53;;;;;;;15.57;7.10;;;;;;;1.95;99.94;97718.28;5059205;28;20675;-68
2022/01/25 03:56:21;;;;;;;11.30;5.07;;;;;;;1.75;100.00;97716.00;5061533;28;20300;-68
2022/01/25 03:58:49;;;;;;;10.03;5.13;;;;;;;1.73;100.00;97717.81;5061916;28;20586;-67
2022/01/25 04:01:16;;;;;;;2.40;2.17;;;;;;;1.46;100.00;97705.59;5062512;28;20259;-67
2022/01/25 04:03:49;;;;;;;4.90;2.53;;;;;;;1.33;100.00;97707.19;5062447;28;20741;-67
2022/01/25 04:06:19;;;;;;;11.87;2.93;;;;;;;1.45;100.00;97704.75;5064006;28;20265;-67
2022/01/25 04:08:46;;;;;;;15.50;5.13;;;;;;;1.57;100.00;97709.25;5060097;28;20232;-67
2022/01/25 04:11:12;;;;;;;12.73;5.47;;;;;;;1.64;100.00;97707.13;5060870;28;20206;-68
2022/01/25 04:13:39;;;;;;;7.10;4.07;;;;;;;1.85;100.00;97701.53;5058556;28;20235;-67
2022/01/25 04:16:12;;;;;;;7.50;4.07;;;;;;;2.11;100.00;97701.66;5059267;28;20205;-67
2022/01/25 04:18:53;;;;;;;17.80;5.57;;;;;;;2.09;99.59;97700.94;5058793;28;20226;-68
2022/01/25 04:21:40;;;;;;;15.00;5.70;;;;;;;1.70;100.00;97705.00;5060463;28;20220;-67
2022/01/25 04:26:54;;;;;;;20.27;5.70;;;;;;;1.77;100.00;97711.56;5059482;28;20711;-67
2022/01/25 04:29:21;;;;;;;11.50;3.40;;;;;;;1.68;100.00;97708.63;5059915;28;20212;-67
2022/01/25 04:31:49;;;;;;;11.20;5.43;;;;;;;1.88;100.00;97711.75;5059177;28;20208;-67
2022/01/25 04:34:37;;;;;;;11.30;6.30;;;;;;;1.91;100.00;97709.00;5059043;28;20222;-67
2022/01/25 04:51:02;;;;;;;13.20;5.40;;;;;;;2.33;99.10;97688.22;5059401;28;20214;-67
2022/01/25 04:53:38;;;;;;;12.60;4.10;;;;;;;2.40;98.62;97691.19;5058570;28;20197;-68
2022/01/25 04:56:11;;;;;;;11.77;5.67;;;;;;;2.05;98.72;97690.78;5059209;28;20212;-69
2022/01/25 04:58:44;;;;;;;7.90;4.87;;;;;;;2.25;98.86;97690.47;5059648;28;20712;-70
2022/01/25 05:01:11;;;;;;;16.33;5.73;;;;;;;2.22;99.27;97683.69;5059460;28;20209;-69
2022/01/25 05:03:53;;;;;;;17.90;5.37;;;;;;;2.18;99.30;97684.78;5058414;28;20229;-69
2022/01/25 05:06:20;;;;;;;18.07;7.57;;;;;;;2.11;99.71;97688.66;5059418;28;20217;-69
2022/01/25 05:08:50;;;;;;;7.87;5.20;;;;;;;2.02;99.04;97678.81;5056977;28;20666;-69
2022/01/25 05:11:25;;;;;;;11.40;6.90;;;;;;;1.87;99.84;97686.69;5059093;28;20212;-66
2022/01/25 05:13:56;;;;;;;33.20;8.83;;;;;;;1.98;99.31;97687.72;5056719;28;20249;-67
2022/01/25 05:16:29;;;;;;;16.70;7.00;;;;;;;2.11;99.28;97688.66;5059451;28;20206;-68
2022/01/25 05:19:09;;;;;;;10.30;6.00;;;;;;;2.28;99.70;97677.25;5058403;28;20211;-66
2022/01/25 05:24:20;;;;;;;12.43;4.97;;;;;;;1.84;99.67;97684.28;5057881;28;20236;-67
2022/01/25 05:26:47;;;;;;;14.67;3.63;;;;;;;1.91;99.30;97677.81;5058078;28;20220;-67
2022/01/25 05:29:13;;;;;;;19.43;5.87;;;;;;;1.75;100.00;97679.59;5058429;28;20752;-67
2022/01/25 05:31:40;;;;;;;23.73;7.37;;;;;;;2.04;99.40;97673.56;5058243;28;20204;-67
2022/01/25 05:34:09;;;;;;;5.83;3.87;;;;;;;2.30;99.09;97670.22;5058242;28;20196;-67
2022/01/25 05:36:36;;;;;;;11.97;4.47;;;;;;;1.70;100.00;97688.59;5057661;28;20740;-67
2022/01/25 05:39:09;;;;;;;10.23;5.63;;;;;;;1.87;100.00;97684.06;5058620;28;20316;-67
2022/01/25 05:41:35;;;;;;;16.00;6.50;;;;;;;1.96;99.60;97691.34;5057824;28;20211;-67
2022/01/25 05:44:21;;;;;;;21.90;7.77;;;;;;;1.97;99.18;97691.28;5057420;28;20329;-67
2022/01/25 05:47:03;;;;;;;19.37;7.83;;;;;;;2.15;98.33;97686.72;5057766;28;20858;-67
2022/01/25 05:49:31;;;;;;;11.80;6.23;;;;;;;2.02;99.17;97689.22;5058205;28;20291;-67
2022/01/25 05:51:58;;;;;;;26.07;6.43;;;;;;;1.98;98.91;97699.91;5057539;28;20208;-67
2022/01/25 05:54:24;;;;;;;9.53;5.03;;;;;;;1.86;98.81;97692.81;5057175;28;20222;-67
2022/01/25 05:56:51;;;;;;;20.60;7.00;;;;;;;1.76;99.44;97696.03;5057877;28;20236;-68
2022/01/25 05:59:18;;;;;;;10.57;5.10;;;;;;;1.68;99.71;97699.09;5057465;28;20200;-67
2022/01/25 06:01:45;;;;;;;13.60;6.10;;;;;;;1.74;99.35;97693.53;5057708;28;20786;-67
2022/01/25 06:04:11;;;;;;;19.17;3.53;;;;;;;1.68;100.00;97693.03;5057194;28;20259;-67
2022/01/25 06:06:39;;;;;;;19.37;6.87;;;;;;;1.87;99.39;97690.13;5057161;28;20209;-67
2022/01/25 06:09:06;;;;;;;10.93;3.70;;;;;;;1.66;99.77;97692.31;5054256;28;20216;-67
2022/01/25 06:11:33;;;;;;;25.43;8.13;;;;;;;1.62;99.83;97694.25;5057512;28;20211;-67
2022/01/25 06:14:00;;;;;;;8.03;4.70;;;;;;;1.73;99.52;97696.22;5056643;28;20201;-66
2022/01/25 06:16:28;;;;;;;20.20;4.43;;;;;;;1.72;99.27;97695.38;5057060;28;20224;-67
2022/01/25 06:18:55;;;;;;;22.90;7.73;;;;;;;1.83;99.17;97690.38;5056797;28;20249;-68
2022/01/25 06:21:21;;;;;;;23.80;4.87;;;;;;;1.82;98.93;97692.16;5057740;28;20196;-69
2022/01/25 06:23:50;;;;;;;22.90;6.67;;;;;;;1.90;98.90;97699.50;5055536;28;20228;-67
2022/01/25 06:26:16;;;;;;;12.33;5.07;;;;;;;1.95;98.45;97697.47;5055316;28;20211;-68
2022/01/25 06:28:43;;;;;;;28.67;7.03;;;;;;;2.03;98.32;97697.88;5057047;28;20235;-67
2022/01/25 06:31:10;;;;;;;11.93;4.87;;;;;;;1.74;98.68;97700.50;5056890;28;20204;-69
2022/01/25 06:33:38;;;;;;;19.33;7.27;;;;;;;1.94;97.58;97701.00;5055731;28;20212;-68
2022/01/25 06:36:05;;;;;;;14.40;5.90;;;;;;;1.89;98.17;97696.06;5057078;28;20216;-67
2022/01/25 06:38:31;;;;;;;15.07;4.23;;;;;;;1.60;98.53;97703.88;5056641;28;20220;-67
2022/01/25 06:40:59;;;;;;;14.10;5.63;;;;;;;1.70;99.53;97704.19;5056532;28;20555;-69
2022/01/25 06:43:26;;;;;;;7.17;4.47;;;;;;;1.68;99.44;97704.28;5055950;28;20235;-68
2022/01/25 06:45:57;;;;;;;13.87;5.67;;;;;;;1.92;99.37;97702.84;5056751;28;20219;-69
2022/01/25 06:48:23;;;;;;;19.73;6.63;;;;;;;1.87;98.91;97715.25;5056161;28;20342;-68
2022/01/25 06:50:50;;;;;;;17.87;5.67;;;;;;;1.65;98.49;97714.84;5057312;28;20205;-70
2022/01/25 06:53:17;;;;;;;12.53;6.10;;;;;;;1.57;99.21;97706.66;5055199;28;20679;-69
2022/01/25 06:55:43;;;;;;;9.23;4.47;;;;;;;1.35;100.00;97713.97;5057384;28;20208;-67
2022/01/25 06:58:11;;;;;;;12.70;6.37;;;;;;;1.89;99.77;97703.84;5056144;28;20221;-67
2022/01/25 07:00:37;;;;;;;16.80;5.70;;;;;;;1.89;98.44;97705.63;5056704;28;20204;-68
2022/01/25 07:03:04;;;;;;;5.93;4.30;;;;;;;1.67;99.52;97712.13;5056685;28;20933;-67
2022/01/25 07:05:32;;;;;;;10.93;5.20;;;;;;;1.71;99.09;97714.50;5056435;28;20208;-69
2022/01/25 07:07:59;;;;;;;5.07;4.27;;;;;;;1.37;98.95;97717.31;5056252;28;20222;-70
2022/01/25 07:10:26;;;;;;;13.67;6.23;;;;;;;1.32;99.40;97715.91;5054108;28;20302;-69
2022/01/25 07:12:52;;;;;;;8.80;4.13;;;;;;;1.38;98.97;97715.56;5055167;28;20201;-70
2022/01/25 07:15:20;;;;;;;16.63;5.87;;;;;;;1.59;99.08;97715.19;5056864;28;20211;-67
2022/01/25 07:17:47;;;;;;;7.63;4.03;;;;;;;1.24;99.44;97721.53;5056003;28;20233;-68
2022/01/25 07:20:13;;;;;;;9.87;4.63;;;;;;;1.07;100.00;97720.78;5056622;28;20212;-68
2022/01/25 07:22:41;;;;;;;8.93;4.27;;;;;;;1.36;99.57;97728.66;5055650;28;20216;-70
2022/01/25 07:25:11;;;;;;;7.77;3.73;;;;;;;1.48;99.75;97727.13;5056362;28;20225;-67
2022/01/25 07:27:38;;;;;;;7.67;4.27;;;;;;;1.36;98.86;97728.66;5056406;28;20217;-67
2022/01/25 07:30:06;;;;;;;9.87;4.80;;;;;;;1.25;99.57;97731.00;5056375;28;20710;-68
2022/01/25 07:32:34;;;;;;;10.03;4.57;;;;;;;1.34;98.99;97730.47;5055039;28;20202;-70
2022/01/25 07:35:01;;;;;;;13.20;3.47;;;;;;;1.00;99.16;97740.19;5056117;28;20198;-68
2022/01/25 07:37:27;;;;;;;7.60;2.77;;;;;;;0.76;100.00;97730.31;5060370;28;20701;-70
2022/01/25 07:39:55;;;;;;;12.97;5.60;;;;;;;0.62;100.00;97738.84;5059416;28;20231;-68
2022/01/25 07:42:22;;;;;;;6.33;4.07;;;;;;;0.50;100.00;97738.63;5059055;28;20208;-68
2022/01/25 07:44:48;;;;;;;4.40;3.30;;;;;;;0.77;100.00;97732.00;5060538;28;20224;-67
2022/01/25 07:47:15;;;;;;;9.80;4.47;;;;;;;0.72;100.00;97731.41;5060273;28;20310;-68
2022/01/25 07:49:43;;;;;;;13.63;4.47;;;;;;;1.12;99.94;97733.50;5059222;28;21207;-67
2022/01/25 07:52:10;;;;;;;15.13;5.60;;;;;;;1.07;99.78;97738.09;5059329;28;20267;-71
2022/01/25 07:54:36;;;;;;;15.70;5.00;;;;;;;0.88;100.00;97740.00;5059803;28;20211;-67
2022/01/25 07:57:03;;;;;;;13.90;7.03;;;;;;;0.88;99.71;97743.47;5059293;28;20310;-67
2022/01/25 07:59:29;;;;;;;5.90;2.80;;;;;;;0.80;100.00;97737.00;5059183;28;20204;-68
2022/01/25 08:01:56;;;;;;;12.50;6.70;;;;;;;0.95;100.00;97737.00;5059929;28;20208;-67
2022/01/25 08:04:22;;;;;;;8.43;3.07;;;;;;;1.03;100.00;97736.59;5058659;28;20224;-67
2022/01/25 08:06:50;;;;;;;13.67;4.67;;;;;;;1.02;100.00;97740.09;5058988;28;20231;-68
2022/01/25 08:09:17;;;;;;;15.60;4.93;;;;;;;0.68;100.00;97740.25;5056491;28;20204;-68
2022/01/25 08:11:43;;;;;;;5.53;3.63;;;;;;;0.56;100.00;97738.31;5059110;28;20988;-68
2022/01/25 08:14:15;;;;;;;12.10;5.47;;;;;;;0.73;100.00;97733.06;5058967;28;20211;-69
2022/01/25 08:16:44;;;;;;;14.73;6.30;;;;;;;0.85;100.00;97741.06;5059354;28;20208;-70
2022/01/25 08:19:11;;;;;;;10.60;3.63;;;;;;;0.96;99.92;97736.09;5057993;28;20201;-69
2022/01/25 08:21:40;;;;;;;18.83;4.93;;;;;;;1.08;99.68;97734.59;5058568;28;20203;-68
2022/01/25 08:24:08;;;;;;;18.43;5.37;;;;;;;1.19;99.06;97740.06;5057452;28;21004;-67
2022/01/25 08:26:35;;;;;;;8.73;3.40;;;;;;;1.19;99.26;97736.50;5058232;28;20210;-69
2022/01/25 08:29:02;;;;;;;8.93;3.37;;;;;;;0.91;100.00;97734.69;5058050;28;21131;-68
2022/01/25 08:31:29;;;;;;;13.37;5.60;;;;;;;0.90;100.00;97733.00;5058219;28;20690;-70
2022/01/25 08:33:55;;;;;;;6.33;4.43;;;;;;;1.18;99.25;97722.78;5056575;28;20209;-68
2022/01/25 08:36:22;;;;;;;8.97;4.27;;;;;;;1.20;99.46;97727.81;5057913;28;20208;-70
2022/01/25 08:38:49;;;;;;;27.27;7.83;;;;;;;1.17;99.80;97728.91;5057934;28;20232;-69
2022/01/25 08:41:17;;;;;;;5.03;2.53;;;;;;;1.08;100.00;97737.19;5058884;28;20209;-69
2022/01/25 08:43:44;;;;;;;2.37;2.17;;;;;;;0.83;100.00;97736.84;5057259;28;20311;-68
2022/01/25 08:46:11;;;;;;;8.77;5.73;;;;;;;1.00;100.00;97729.00;5058115;28;20208;-68
2022/01/25 08:48:37;;;;;;;7.17;3.30;;;;;;;0.73;100.00;97730.47;5056886;28;20231;-68
2022/01/25 08:51:04;;;;;;;2.97;2.73;;;;;;;0.88;100.00;97729.63;5058447;28;20209;-67
2022/01/25 08:53:31;;;;;;;7.00;4.33;;;;;;;1.06;100.00;97728.63;5058070;28;20573;-68
2022/01/25 08:55:58;;;;;;;9.20;5.03;;;;;;;1.33;99.54;97730.56;5057383;28;20200;-68
2022/01/25 08:58:26;;;;;;;6.20;4.40;;;;;;;1.47;99.38;97741.03;5059326;28;20225;-68
2022/01/25 09:00:53;;;;;;;16.23;5.00;;;;;;;1.33;98.78;97733.16;5058164;28;20219;-70
2022/01/25 09:03:19;;;;;;;12.17;4.00;;;;;;;1.22;98.64;97732.91;5057681;28;20212;-67
2022/01/25 09:05:46;;;;;;;14.30;5.53;;;;;;;1.11;98.39;97742.19;5057739;28;20228;-67
2022/01/25 09:08:16;;;;;;;5.30;4.80;;;;;;;1.40;98.14;97740.53;5058658;28;20597;-69
2022/01/25 09:10:43;;;;;;;13.43;4.00;;;;;;;1.31;98.23;97745.38;5054709;28;20774;-70
2022/01/25 09:13:09;;;;;;;18.13;4.93;;;;;;;1.55;97.53;97744.84;5057866;28;20573;-67
2022/01/25 09:15:37;;;;;;;5.37;3.87;;;;;;;1.69;97.13;97752.69;5058282;28;20212;-67
2022/01/25 09:18:04;;;;;;;17.70;4.63;;;;;;;1.57;96.47;97747.38;5057479;28;20217;-67
2022/01/25 09:20:30;;;;;;;17.33;6.43;;;;;;;1.66;96.31;97747.69;5058400;28;20205;-68
2022/01/25 09:22:57;;;;;;;28.80;8.07;;;;;;;1.41;96.47;97747.41;5056973;28;20204;-67
2022/01/25 09:25:23;;;;;;;9.70;5.27;;;;;;;1.56;96.75;97740.50;5058287;28;20246;-68
2022/01/25 09:27:50;;;;;;;19.43;5.37;;;;;;;1.41;96.22;97731.81;5058067;28;20218;-67
2022/01/25 09:30:17;;;;;;;15.27;6.77;;;;;;;1.40;97.46;97737.94;5057660;28;20208;-67
2022/01/25 09:32:46;;;;;;;6.50;4.30;;;;;;;1.46;97.94;97734.16;5056371;28;20915;-67
2022/01/25 09:35:12;;;;;;;19.87;7.10;;;;;;;1.47;97.95;97736.66;5057617;28;20221;-67
2022/01/25 09:37:39;;;;;;;11.40;5.20;;;;;;;1.33;97.77;97734.00;5058210;28;20213;-67
2022/01/25 09:40:07;;;;;;;12.97;5.13;;;;;;;1.30;99.25;97728.16;5056913;28;21388;-67
2022/01/25 09:42:34;;;;;;;16.20;6.87;;;;;;;1.22;98.43;97731.16;5056639;28;20806;-67
2022/01/25 09:45:00;;;;;;;12.40;4.43;;;;;;;1.56;98.84;97730.13;5057537;28;20220;-67
2022/01/25 09:47:27;;;;;;;9.43;5.97;;;;;;;1.50;98.40;97733.06;5057458;28;20586;-67
2022/01/25 09:49:55;;;;;;;12.80;5.30;;;;;;;1.38;98.77;97734.56;5057385;28;20216;-67
2022/01/25 09:52:22;;;;;;;7.07;3.90;;;;;;;1.83;96.69;97734.56;5057735;28;20587;-68
2022/01/25 09:54:54;;;;;;;25.03;6.67;;;;;;;1.86;97.89;97737.84;5057089;28;20598;-67
2022/01/25 09:57:21;;;;;;;21.10;5.27;;;;;;;1.75;98.20;97730.75;5057615;28;20223;-67
2022/01/25 09:59:48;;;;;;;4.40;3.87;;;;;;;1.55;98.22;97733.63;5056413;28;20206;-67
2022/01/25 10:02:37;;;;;;;16.43;5.47;;;;;;;1.76;97.94;97730.66;5056750;28;20681;-67
2022/01/25 10:05:18;;;;;;;12.10;5.87;;;;;;;1.73;97.95;97725.63;5056524;28;20581;-68
2022/01/25 10:07:54;;;;;;;13.90;5.07;;;;;;;1.57;97.43;97722.22;5057173;28;20224;-67
2022/01/25 10:10:21;;;;;;;4.70;4.00;;;;;;;1.37;99.57;97719.91;5053750;28;20206;-67
2022/01/25 10:12:47;;;;;;;17.07;7.73;;;;;;;1.64;98.83;97726.13;5056191;28;20581;-67
2022/01/25 10:15:14;;;;;;;14.87;4.37;;;;;;;2.05;97.36;97722.84;5057091;28;20585;-68
2022/01/25 10:17:43;;;;;;;8.67;6.37;;;;;;;1.73;96.76;97732.59;5057238;28;20220;-67
2022/01/25 10:20:26;;;;;;;13.50;5.37;;;;;;;1.64;98.35;97733.13;5056777;28;20580;-67
2022/01/25 10:22:53;;;;;;;9.47;4.20;;;;;;;1.52;98.17;97724.25;5055782;28;20212;-68
2022/01/25 10:25:30;;;;;;;9.60;5.57;;;;;;;1.91;96.90;97724.59;5056953;28;20224;-67
2022/01/25 10:28:00;;;;;;;15.80;5.60;;;;;;;1.63;97.62;97727.09;5056284;28;20224;-68
2022/01/25 10:30:31;;;;;;;19.53;7.97;;;;;;;1.90;97.88;97725.50;5056837;28;20208;-67
2022/01/25 10:33:00;;;;;;;10.97;4.40;;;;;;;2.46;96.38;97716.84;5056617;28;20208;-68
2022/01/25 10:35:30;;;;;;;15.33;5.40;;;;;;;2.24;95.67;97715.63;5055909;28;20249;-68
2022/01/25 10:37:56;;;;;;;19.53;7.00;;;;;;;2.08;95.47;97716.63;5056502;28;20282;-70
2022/01/25 10:40:35;;;;;;;12.07;3.77;;;;;;;2.24;95.62;97700.03;5056655;28;20211;-70
2022/01/25 10:43:02;;;;;;;9.10;4.53;;;;;;;2.10;94.84;97697.41;5055891;28;20200;-70
2022/01/25 10:45:29;;;;;;;8.60;3.97;;;;;;;1.74;96.84;97700.50;5056583;28;20228;-67
2022/01/25 10:47:56;;;;;;;6.50;4.67;;;;;;;1.91;95.80;97690.78;5057397;28;20232;-68
2022/01/25 10:50:25;;;;;;;11.17;3.93;;;;;;;2.16;96.89;97688.41;5056069;28;20210;-68
2022/01/25 10:53:06;;;;;;;8.50;5.43;;;;;;;2.41;95.53;97689.44;5055632;28;20317;-69
2022/01/25 10:55:37;;;;;;;5.37;2.40;;;;;;;2.02;95.87;97685.78;5056728;28;20201;-69
2022/01/25 10:58:05;;;;;;;9.80;5.33;;;;;;;1.64;97.50;97702.75;5056456;28;20219;-67
2022/01/25 11:00:34;;;;;;;8.73;4.20;;;;;;;1.89;97.51;97696.06;5056571;28;20318;-67
2022/01/25 11:03:01;;;;;;;17.13;6.50;;;;;;;1.96;96.82;97697.41;5056381;28;20205;-67
2022/01/25 11:05:32;;;;;;;9.40;5.13;;;;;;;1.98;96.89;97686.91;5056952;28;20224;-70
2022/01/25 11:08:12;;;;;;;15.70;6.03;;;;;;;2.23;96.02;97676.69;5056753;28;20220;-70
2022/01/25 11:10:46;;;;;;;10.57;3.63;;;;;;;2.07;96.31;97683.75;5054822;28;20214;-68
2022/01/25 11:13:33;;;;;;;8.27;4.20;;;;;;;1.86;97.34;97687.63;5059757;28;20404;-67
2022/01/25 11:16:01;;;;;;;12.47;6.73;;;;;;;2.19;96.43;97688.22;5060158;28;20285;-68
2022/01/25 11:18:30;;;;;;;11.73;5.20;;;;;;;2.24;95.20;97689.63;5060780;28;20636;-67
2022/01/25 11:20:58;;;;;;;19.23;5.67;;;;;;;2.59;94.77;97683.13;5059947;28;20636;-68
2022/01/25 11:23:26;;;;;;;19.90;4.47;;;;;;;2.69;94.42;97692.03;5059420;28;20207;-70
2022/01/25 11:25:55;;;;;;;10.27;5.03;;;;;;;2.83;94.18;97690.25;5060007;28;20221;-70
2022/01/25 11:28:23;;;;;;;8.47;5.23;;;;;;;2.59;94.00;97691.75;5060271;28;20224;-70
2022/01/25 11:30:51;;;;;;;14.17;8.13;;;;;;;2.74;93.54;97690.81;5059694;28;20204;-68
2022/01/25 11:33:19;;;;;;;13.97;6.13;;;;;;;2.48;94.96;97691.59;5059841;28;21155;-70
2022/01/25 11:35:47;;;;;;;10.17;6.27;;;;;;;2.52;93.15;97685.28;5059721;28;20201;-69
2022/01/25 11:38:14;;;;;;;14.57;7.50;;;;;;;2.81;92.97;97684.28;5059325;28;20227;-69
2022/01/25 11:40:46;;;;;;;15.50;5.07;;;;;;;2.96;93.08;97683.34;5059694;28;20211;-70
2022/01/25 11:43:15;;;;;;;12.03;5.37;;;;;;;2.86;91.99;97679.63;5058973;28;21132;-70
2022/01/25 11:45:44;;;;;;;18.63;6.47;;;;;;;2.73;93.04;97683.94;5059548;28;20240;-68
2022/01/25 11:48:11;;;;;;;16.83;5.07;;;;;;;2.62;92.79;97681.19;5059482;28;20611;-69
2022/01/25 11:50:40;;;;;;;6.50;2.27;;;;;;;2.63;93.31;97682.81;5060057;28;20196;-68
2022/01/25 11:53:09;;;;;;;9.97;4.33;;;;;;;2.65;93.41;97675.78;5058999;28;20213;-69
2022/01/25 11:55:37;;;;;;;17.33;7.60;;;;;;;2.57;94.28;97671.97;5059930;28;20201;-68
2022/01/25 11:58:07;;;;;;;22.30;6.57;;;;;;;2.99;92.83;97674.50;5060037;28;20232;-67
2022/01/25 12:00:40;;;;;;;13.43;6.23;;;;;;;2.98;93.92;97676.28;5059583;28;20208;-69
2022/01/25 12:03:25;;;;;;;6.70;3.57;;;;;;;2.94;92.79;97667.00;5058470;28;20207;-68
2022/01/25 12:06:14;;;;;;;16.73;6.17;;;;;;;3.02;92.85;97672.56;5058714;28;20707;-68
2022/01/25 12:08:51;;;;;;;30.70;6.23;;;;;;;2.96;92.25;97662.50;5056541;28;20227;-68
2022/01/25 12:11:28;;;;;;;10.23;4.17;;;;;;;3.37;91.87;97655.50;5058968;28;20266;-68
2022/01/25 12:14:12;;;;;;;16.63;6.53;;;;;;;3.30;91.80;97654.25;5058897;28;20548;-69
2022/01/25 12:16:43;;;;;;;10.70;4.43;;;;;;;2.94;92.44;97651.38;5059434;28;20847;-68
2022/01/25 12:19:11;;;;;;;20.67;7.40;;;;;;;2.94;92.64;97653.97;5058610;28;20207;-68
2022/01/25 12:21:59;;;;;;;8.27;5.17;;;;;;;2.93;93.02;97647.09;5058888;28;20197;-68
2022/01/25 12:24:30;;;;;;;19.47;7.23;;;;;;;3.30;92.20;97646.44;5058640;28;20261;-68
2022/01/25 12:27:02;;;;;;;11.73;5.73;;;;;;;3.47;90.38;97651.38;5058737;28;20233;-70
2022/01/25 12:29:38;;;;;;;18.00;6.90;;;;;;;3.75;89.95;97645.06;5059469;28;20232;-68
2022/01/25 12:32:27;;;;;;;9.13;4.57;;;;;;;3.29;90.22;97645.56;5058890;28;20219;-69
2022/01/25 12:35:10;;;;;;;12.57;4.83;;;;;;;3.66;89.47;97642.25;5058725;28;20706;-68
2022/01/25 12:38:03;;;;;;;22.20;7.83;;;;;;;3.54;89.24;97632.63;5059527;28;20220;-67
2022/01/25 12:40:42;;;;;;;16.97;6.37;;;;;;;3.49;90.76;97633.84;5059092;28;20215;-69
2022/01/25 12:43:11;;;;;;;10.73;4.47;;;;;;;3.75;89.09;97632.03;5058138;28;20293;-69
2022/01/25 12:45:45;;;;;;;19.97;5.77;;;;;;;3.87;89.03;97630.38;5058957;28;20235;-69
2022/01/25 12:48:14;;;;;;;17.57;5.47;;;;;;;3.52;89.67;97628.47;5058471;28;20584;-69
2022/01/25 12:50:44;;;;;;;19.40;7.10;;;;;;;3.80;88.54;97629.94;5058613;28;20200;-68